Myrtle, Minnesota
Current Conditions -  °F | °C
As of 2:11 PM on Sunday 21 Dec 2014 (Local Time) from KAEL Reporting Station
Haze Haze  
Wind Chill: 25°   Ceiling: 400
Heat Index: 36°   Visibility: 1mi
Dew Point: 36°   Wind: 20mph
Humidity: 100%   Direction: 170°S
Pressure: 29.73"   Gusts: 26mph
Location:  43.5439°N, 93.1707°W
Report Text: KAEL 212011Z AUTO 17017G23KT 1SM BR OVC004 02/02 A2973 RMK AO2
Loading
Personal Weather Stations






























Interactive Weather Map New forecast layout! Learn more

10-Day Weather Forecast

Advertisements
Track Severe Weather on mobile